Fredricktwn, Ohio
Current Conditions -  °F | °C
As of 3:35 PM on Friday 28 Nov 2014 (Local Time) from K4I3 Reporting Station
Scattered Clouds Scattered Clouds  
Wind Chill: 22°   Ceiling: Unl
Heat Index: 28°   Visibility: 10mi
Dew Point: 18°   Wind: 6mph
Humidity: 64%   Direction: 200°SSW
Pressure: 30.22"   Gusts: NA
Location:  40.4945°N, 82.5786°W
Report Text: K4I3 282035Z AUTO 20005KT 10SM SCT028 SCT075 M02/M08 A3022 RMK AO2
Loading
Personal Weather Stations






























Interactive Weather Map New forecast layout! Learn more

10-Day Weather Forecast

Advertisements
Track Severe Weather on mobile